createdAt,value
2024-05-09T00:03:20.727Z,5.60
2024-05-09T00:07:23.537Z,5.30
2024-05-09T00:11:26.543Z,6.00
2024-05-09T00:15:30.781Z,6.20
2024-05-09T00:19:33.854Z,6.00
2024-05-09T00:23:37.046Z,6.70
2024-05-09T00:27:41.508Z,6.30
2024-05-09T00:31:44.309Z,5.80
2024-05-09T00:35:46.998Z,6.70
2024-05-09T00:39:49.802Z,6.20
2024-05-09T00:43:52.525Z,6.80
2024-05-09T00:47:55.684Z,6.10
2024-05-09T00:51:58.868Z,5.80
2024-05-09T00:56:01.791Z,6.60
2024-05-09T01:00:07.802Z,6.50
2024-05-09T01:04:13.765Z,6.20
2024-05-09T01:08:16.771Z,6.50
2024-05-09T01:12:19.772Z,6.00
2024-05-09T01:16:22.677Z,6.20
2024-05-09T01:20:36.600Z,6.70
2024-05-09T01:24:44.146Z,6.40
2024-05-09T01:28:46.914Z,5.10
2024-05-09T01:32:49.959Z,5.30
2024-05-09T01:36:53.004Z,5.80
2024-05-09T01:40:56.066Z,6.50
2024-05-09T01:44:58.941Z,5.60
2024-05-09T01:49:01.917Z,7.50
2024-05-09T01:53:04.867Z,6.50
2024-05-09T01:57:07.648Z,7.60
2024-05-09T02:01:10.423Z,8.90
2024-05-09T02:05:13.361Z,8.20
2024-05-09T02:09:16.208Z,8.60
2024-05-09T02:13:18.947Z,7.10
2024-05-09T02:17:21.791Z,7.00
2024-05-09T02:21:24.606Z,7.10
2024-05-09T02:25:27.586Z,8.20
2024-05-09T02:29:30.574Z,7.30
2024-05-09T02:33:33.624Z,7.10
2024-05-09T02:37:36.893Z,6.70
2024-05-09T02:41:39.638Z,6.20
2024-05-09T02:45:42.379Z,7.50
2024-05-09T02:49:45.484Z,8.00
2024-05-09T02:53:48.271Z,7.40
2024-05-09T02:57:51.278Z,6.30
2024-05-09T03:01:54.301Z,6.30
2024-05-09T03:05:57.000Z,8.20
2024-05-09T03:09:59.697Z,11.90
2024-05-09T03:14:02.546Z,8.90
2024-05-09T03:18:06.409Z,8.00
2024-05-09T03:22:09.851Z,7.20
2024-05-09T03:26:13.378Z,8.10
2024-05-09T03:30:28.813Z,5.90
2024-05-09T03:34:41.573Z,6.60
2024-05-09T03:38:44.576Z,6.60
2024-05-09T03:42:47.506Z,7.00
2024-05-09T03:46:50.281Z,7.60
2024-05-09T03:50:53.078Z,7.60
2024-05-09T03:54:55.812Z,5.90
2024-05-09T03:58:58.568Z,6.10
2024-05-09T04:03:01.799Z,6.10
2024-05-09T04:07:05.004Z,6.50
2024-05-09T04:15:13.403Z,6.50
2024-05-09T04:19:16.696Z,8.60
2024-05-09T04:23:19.641Z,6.70
2024-05-09T04:27:22.377Z,7.20
2024-05-09T04:31:25.092Z,6.30
2024-05-09T04:35:27.999Z,6.80
2024-05-09T04:39:30.934Z,6.20
2024-05-09T04:43:35.158Z,5.20
2024-05-09T04:47:42.041Z,4.50
2024-05-09T04:51:45.107Z,5.70
2024-05-09T04:55:47.883Z,5.90
2024-05-09T04:59:50.763Z,4.90
2024-05-09T05:03:55.882Z,7.30
2024-05-09T05:07:59.190Z,7.00
2024-05-09T05:12:02.954Z,6.30
2024-05-09T05:16:05.915Z,5.20
2024-05-09T05:20:12.690Z,4.90
2024-05-09T05:24:17.822Z,5.40
2024-05-09T05:28:21.430Z,5.20
2024-05-09T05:32:24.771Z,6.10
2024-05-09T05:36:27.784Z,5.00
2024-05-09T05:40:36.529Z,4.10
2024-05-09T05:44:40.990Z,4.60
2024-05-09T05:48:43.707Z,5.50
2024-05-09T05:52:46.691Z,5.00
2024-05-09T05:56:49.440Z,4.50
2024-05-09T06:00:53.526Z,4.70
2024-05-09T06:04:56.719Z,4.60
2024-05-09T06:08:59.856Z,4.90
2024-05-09T06:13:02.520Z,5.10
2024-05-09T06:17:05.179Z,3.20
2024-05-09T06:21:08.146Z,4.20
2024-05-09T06:25:11.114Z,4.50
2024-05-09T06:29:14.153Z,4.90
2024-05-09T06:33:17.228Z,4.50
2024-05-09T06:37:20.179Z,3.00
2024-05-09T06:41:22.887Z,2.90
2024-05-09T06:45:25.658Z,2.70
2024-05-09T06:49:30.136Z,2.90
2024-05-09T06:53:33.147Z,2.90
2024-05-09T06:57:37.238Z,3.40
2024-05-09T07:01:41.299Z,3.20
2024-05-09T07:05:44.823Z,3.00
2024-05-09T07:09:47.855Z,3.10
2024-05-09T07:13:50.823Z,3.60
2024-05-09T07:17:53.817Z,3.20
2024-05-09T07:21:58.017Z,2.90
2024-05-09T07:26:00.848Z,2.40
2024-05-09T07:30:05.595Z,3.20
2024-05-09T07:34:11.812Z,2.30
2024-05-09T07:38:14.904Z,3.50
2024-05-09T07:42:17.928Z,3.10
2024-05-09T07:47:14.622Z,3.10
2024-05-09T07:54:49.296Z,3.70
2024-05-09T07:58:55.710Z,3.10
2024-05-09T08:02:58.675Z,2.40
2024-05-09T08:07:01.583Z,3.60
2024-05-09T08:11:06.576Z,3.60
2024-05-09T08:15:09.593Z,4.20
2024-05-09T08:19:12.801Z,4.00
2024-05-09T08:23:15.812Z,3.30
2024-05-09T08:27:18.557Z,2.90
2024-05-09T08:31:21.513Z,3.60
2024-05-09T08:35:24.379Z,3.20
2024-05-09T08:39:27.233Z,2.60
2024-05-09T08:43:30.827Z,3.70
2024-05-09T08:47:34.067Z,3.80
2024-05-09T08:51:37.219Z,20.10
2024-05-09T08:55:43.186Z,3.40
2024-05-09T08:59:50.824Z,3.50
2024-05-09T09:03:55.257Z,2.80
2024-05-09T09:07:58.164Z,2.20
2024-05-09T09:12:01.127Z,2.80
2024-05-09T09:16:04.377Z,2.50
2024-05-09T09:20:14.122Z,2.30
2024-05-09T09:24:19.337Z,2.50
2024-05-09T09:28:23.300Z,1.90
2024-05-09T09:32:28.974Z,1.80
2024-05-09T09:40:40.748Z,2.40
2024-05-09T09:44:58.001Z,1.90
2024-05-09T09:49:08.416Z,2.00
2024-05-09T09:53:12.572Z,1.80
2024-05-09T09:57:16.125Z,2.70
2024-05-09T10:01:19.021Z,2.50
2024-05-09T10:05:23.393Z,2.20
2024-05-09T10:09:26.502Z,2.00
2024-05-09T10:13:35.257Z,2.30
2024-05-09T10:17:38.597Z,1.60
2024-05-09T10:21:47.088Z,2.00
2024-05-09T10:25:57.121Z,2.00
2024-05-09T10:30:07.014Z,2.20
2024-05-09T10:34:22.194Z,1.90
2024-05-09T10:38:26.356Z,1.60
2024-05-09T10:42:29.620Z,1.80
2024-05-09T10:46:32.523Z,1.60
2024-05-09T10:50:35.312Z,1.50
2024-05-09T10:54:39.573Z,2.70
2024-05-09T10:58:42.554Z,2.10
2024-05-09T11:02:48.320Z,1.70
2024-05-09T11:10:55.384Z,1.60
2024-05-09T11:14:58.340Z,2.30
2024-05-09T11:19:01.254Z,1.70
2024-05-09T11:23:05.747Z,1.70
2024-05-09T11:27:08.595Z,1.80
2024-05-09T11:31:11.675Z,1.40
2024-05-09T11:35:14.526Z,1.80
2024-05-09T11:39:17.515Z,1.60
2024-05-09T11:43:21.055Z,1.50
2024-05-09T11:47:24.620Z,1.40
2024-05-09T11:51:27.678Z,1.90
2024-05-09T11:55:31.033Z,2.10
2024-05-09T11:59:33.885Z,2.20
2024-05-09T12:03:37.793Z,2.30
2024-05-09T12:07:43.391Z,1.50
2024-05-09T12:11:46.393Z,1.50
2024-05-09T12:15:49.279Z,2.20
2024-05-09T12:19:52.790Z,2.00
2024-05-09T12:23:55.675Z,1.70
2024-05-09T12:27:58.643Z,2.10
2024-05-09T12:32:01.557Z,1.60
2024-05-09T12:36:04.645Z,2.10
2024-05-09T12:40:15.823Z,2.00
2024-05-09T12:55:12.174Z,1.70
2024-05-09T12:59:16.600Z,1.90
2024-05-09T13:03:22.168Z,1.90
2024-05-09T13:07:28.685Z,1.60
2024-05-09T13:12:01.859Z,1.50
2024-05-09T13:16:05.642Z,2.50
2024-05-09T13:20:36.306Z,2.10
2024-05-09T13:24:40.894Z,1.90
2024-05-09T13:28:43.945Z,1.70
2024-05-09T13:32:47.678Z,1.80
2024-05-09T13:36:50.898Z,1.80
2024-05-09T13:40:55.231Z,2.00
2024-05-09T13:44:58.503Z,1.60
2024-05-09T13:49:03.134Z,1.90
2024-05-09T13:53:07.701Z,1.70
2024-05-09T13:57:12.092Z,1.90
2024-05-09T14:02:15.283Z,1.80
2024-05-09T14:06:18.667Z,2.20
2024-05-09T14:10:28.658Z,1.30
2024-05-09T14:14:37.599Z,1.50
2024-05-09T14:18:41.465Z,1.30
2024-05-09T14:22:45.759Z,1.50
2024-05-09T14:27:19.092Z,1.70
2024-05-09T14:31:24.450Z,1.90
2024-05-09T14:35:28.960Z,1.50
2024-05-09T14:39:31.963Z,1.00
2024-05-09T14:43:36.344Z,1.70
2024-05-09T14:47:39.563Z,1.50
2024-05-09T14:51:48.550Z,1.60
2024-05-09T14:55:51.601Z,1.70
2024-05-09T15:00:29.630Z,1.40
2024-05-09T15:04:38.941Z,1.80
2024-05-09T15:08:56.722Z,1.50
2024-05-09T15:12:59.865Z,2.40
2024-05-09T15:17:03.985Z,2.20
2024-05-09T15:21:07.458Z,1.90
2024-05-09T15:25:11.276Z,2.40
2024-05-09T15:29:14.513Z,2.00
2024-05-09T15:33:19.392Z,1.90
2024-05-09T15:37:23.665Z,1.40
2024-05-09T15:41:29.602Z,1.30
2024-05-09T15:45:32.656Z,2.60
2024-05-09T15:49:35.865Z,1.70
2024-05-09T15:53:39.133Z,2.00
2024-05-09T15:57:42.129Z,2.50
2024-05-09T16:01:48.750Z,2.10
2024-05-09T16:05:52.139Z,1.50
2024-05-09T16:09:55.849Z,1.70
2024-05-09T16:13:58.916Z,1.60
2024-05-09T16:18:05.001Z,2.30
2024-05-09T16:22:08.067Z,1.60
2024-05-09T16:26:17.335Z,2.20
2024-05-09T16:30:27.884Z,1.90
2024-05-09T16:34:38.379Z,1.90
2024-05-09T16:38:42.942Z,2.00
2024-05-09T16:42:46.117Z,2.20
2024-05-09T16:46:49.097Z,2.40
2024-05-09T16:50:52.118Z,1.80
2024-05-09T16:54:55.088Z,2.50
2024-05-09T16:58:58.123Z,1.90
2024-05-09T17:03:01.044Z,2.70
2024-05-09T17:07:04.932Z,2.50
2024-05-09T17:11:07.939Z,1.20
2024-05-09T17:15:11.246Z,2.20
2024-05-09T17:19:14.157Z,1.80
2024-05-09T17:23:17.322Z,2.20
2024-05-09T17:27:20.210Z,2.70
2024-05-09T17:31:22.951Z,1.60
2024-05-09T17:35:25.862Z,1.50
2024-05-09T17:39:28.603Z,2.40
2024-05-09T17:43:31.454Z,1.80
2024-05-09T17:47:35.980Z,2.90
2024-05-09T17:51:38.931Z,2.80
2024-05-09T17:55:42.505Z,1.90
2024-05-09T17:59:45.652Z,4.30
2024-05-09T18:03:50.046Z,2.80
2024-05-09T18:07:55.418Z,3.10
2024-05-09T18:12:00.017Z,2.10
2024-05-09T18:16:02.868Z,1.80
2024-05-09T18:20:08.948Z,2.40
2024-05-09T18:24:11.987Z,3.40
2024-05-09T18:28:15.572Z,3.20
2024-05-09T18:32:18.717Z,2.10
2024-05-09T18:36:21.811Z,2.00
2024-05-09T18:40:32.783Z,2.70
2024-05-09T18:44:38.798Z,3.10
2024-05-09T18:48:41.855Z,2.20
2024-05-09T18:52:44.906Z,2.00
2024-05-09T18:56:47.713Z,1.60
2024-05-09T19:00:53.273Z,2.40
2024-05-09T19:04:58.002Z,2.20
2024-05-09T19:09:00.857Z,1.90
2024-05-09T19:13:09.343Z,2.00
2024-05-09T19:17:15.494Z,2.00
2024-05-09T19:21:18.349Z,2.20
2024-05-09T19:25:21.064Z,2.70
2024-05-09T19:29:24.060Z,2.30
2024-05-09T19:33:26.853Z,2.20
2024-05-09T19:37:31.543Z,2.60
2024-05-09T19:41:34.302Z,2.80
2024-05-09T19:45:37.300Z,3.00
2024-05-09T19:49:40.469Z,3.90
2024-05-09T19:53:43.473Z,4.90
2024-05-09T19:57:46.619Z,5.50
2024-05-09T20:01:49.661Z,5.40
2024-05-09T20:05:52.663Z,4.00
2024-05-09T20:09:55.534Z,3.90
2024-05-09T20:13:59.689Z,4.50
2024-05-09T20:18:04.075Z,4.20
2024-05-09T20:22:07.230Z,6.20
2024-05-09T20:26:10.704Z,7.30
2024-05-09T20:30:20.911Z,5.90
2024-05-09T20:34:28.379Z,6.30
2024-05-09T20:38:31.388Z,6.20
2024-05-09T20:42:34.259Z,6.00
2024-05-09T20:46:37.026Z,6.90
2024-05-09T20:50:42.530Z,5.70
2024-05-09T20:54:46.406Z,5.60
2024-05-09T20:58:49.326Z,6.00
2024-05-09T21:02:52.203Z,5.90
2024-05-09T21:06:55.131Z,7.40
2024-05-09T21:10:58.046Z,6.20
2024-05-09T21:15:00.904Z,5.60
2024-05-09T21:19:03.884Z,5.50
2024-05-09T21:23:06.772Z,6.80
2024-05-09T21:27:09.654Z,5.20
2024-05-09T21:31:12.533Z,5.30
2024-05-09T21:35:15.436Z,5.40
2024-05-09T21:39:18.327Z,5.10
2024-05-09T21:43:21.319Z,5.00
2024-05-09T21:47:24.640Z,5.20
2024-05-09T21:51:27.410Z,6.70
2024-05-09T21:55:30.294Z,6.00
2024-05-09T21:59:33.123Z,4.40
2024-05-09T22:03:36.215Z,4.10
2024-05-09T22:07:40.335Z,4.40
2024-05-09T22:11:43.146Z,4.20
2024-05-09T22:15:45.946Z,4.70
2024-05-09T22:19:49.582Z,4.60
2024-05-09T22:23:52.387Z,4.30
2024-05-09T22:27:55.208Z,4.00
2024-05-09T22:31:58.031Z,4.60
2024-05-09T22:36:00.741Z,5.00
2024-05-09T22:40:06.801Z,4.70
2024-05-09T22:44:10.013Z,5.30
2024-05-09T22:48:13.118Z,5.60
2024-05-09T22:52:16.154Z,5.00
2024-05-09T22:56:29.208Z,4.50
2024-05-09T23:00:33.250Z,5.70
2024-05-09T23:04:38.391Z,4.90
2024-05-09T23:08:41.328Z,7.60
2024-05-09T23:12:44.144Z,7.20
2024-05-09T23:16:46.989Z,6.70
2024-05-09T23:20:49.993Z,5.40
2024-05-09T23:24:52.751Z,5.40
2024-05-09T23:28:55.514Z,6.40
2024-05-09T23:32:58.443Z,5.50
2024-05-09T23:37:01.413Z,4.80
2024-05-09T23:41:06.132Z,5.70
2024-05-09T23:45:09.050Z,5.60
2024-05-09T23:49:12.156Z,5.50
2024-05-09T23:53:15.057Z,5.60
2024-05-09T23:57:17.816Z,5.20
